createdAt,value
2023-01-17T00:01:59.349Z,97839.22
2023-01-17T00:04:44.868Z,97835.47
2023-01-17T00:07:31.318Z,97855.56
2023-01-17T00:10:02.918Z,97857.22
2023-01-17T00:12:32.365Z,97853.09
2023-01-17T00:15:01.082Z,97846.38
2023-01-17T00:17:30.793Z,97861.47
2023-01-17T00:20:18.665Z,97832.34
2023-01-17T00:23:05.873Z,97846.84
2023-01-17T00:25:55.962Z,97866.69
2023-01-17T00:28:23.849Z,97862.72
2023-01-17T00:30:50.744Z,97879.69
2023-01-17T00:33:17.611Z,97891.97
2023-01-17T00:35:44.745Z,97884.34
2023-01-17T00:38:13.738Z,97886.78
2023-01-17T00:40:44.575Z,97889.09
2023-01-17T00:43:31.780Z,97892.22
2023-01-17T00:46:17.733Z,97892.72
2023-01-17T00:49:04.279Z,97904.22
2023-01-17T00:51:51.380Z,97901.03
2023-01-17T00:54:37.397Z,97908.72
2023-01-17T00:57:24.941Z,97917.53
2023-01-17T01:00:11.058Z,97911.47
2023-01-17T01:02:57.091Z,97926.19
2023-01-17T01:05:43.602Z,97918.81
2023-01-17T01:08:37.904Z,97934.00
2023-01-17T01:11:25.600Z,97941.69
2023-01-17T01:14:12.736Z,97936.63
2023-01-17T01:16:58.112Z,97939.00
2023-01-17T01:19:44.251Z,97948.34
2023-01-17T01:22:29.389Z,97957.50
2023-01-17T01:25:15.437Z,97943.78
2023-01-17T01:28:01.214Z,97964.34
2023-01-17T01:30:49.110Z,97955.47
2023-01-17T01:33:19.566Z,97969.59
2023-01-17T01:35:53.980Z,97966.97
2023-01-17T01:38:24.418Z,97980.25
2023-01-17T01:40:54.500Z,97988.50
2023-01-17T01:43:42.225Z,97988.56
2023-01-17T01:46:14.646Z,97990.66
2023-01-17T01:48:48.305Z,97993.47
2023-01-17T01:51:23.238Z,97998.50
2023-01-17T01:53:55.322Z,98005.09
2023-01-17T01:56:24.755Z,98002.44
2023-01-17T01:58:54.737Z,98010.50
2023-01-17T02:01:24.144Z,98019.03
2023-01-17T02:03:53.230Z,98017.59
2023-01-17T02:06:33.402Z,98021.63
2023-01-17T02:09:05.511Z,98028.25
2023-01-17T02:11:34.677Z,98022.63
2023-01-17T02:14:05.722Z,98040.03
2023-01-17T02:16:51.452Z,98046.72
2023-01-17T02:19:46.156Z,98035.94
2023-01-17T02:22:42.847Z,98051.34
2023-01-17T02:25:35.428Z,98065.38
2023-01-17T02:28:20.263Z,98065.53
2023-01-17T02:30:55.089Z,98065.94
2023-01-17T02:33:33.203Z,98062.00
2023-01-17T02:36:10.896Z,98075.03
2023-01-17T02:38:47.732Z,98086.03
2023-01-17T02:41:20.940Z,98083.22
2023-01-17T02:43:50.516Z,98078.97
2023-01-17T02:46:24.044Z,98085.63
2023-01-17T02:48:53.230Z,98077.50
2023-01-17T02:51:48.825Z,98083.63
2023-01-17T02:54:42.512Z,98091.88
2023-01-17T02:57:30.428Z,98090.84
2023-01-17T03:00:07.486Z,98105.66
2023-01-17T03:02:46.869Z,98108.34
2023-01-17T03:05:20.377Z,98101.72
2023-01-17T03:07:50.334Z,98117.91
2023-01-17T03:10:20.399Z,98122.31
2023-01-17T03:12:48.915Z,98123.94
2023-01-17T03:15:19.616Z,98127.81
2023-01-17T03:17:52.835Z,98127.22
2023-01-17T03:20:22.636Z,98125.63
2023-01-17T03:22:50.795Z,98133.22
2023-01-17T03:25:19.570Z,98135.56
2023-01-17T03:27:49.202Z,98142.78
2023-01-17T03:30:21.553Z,98140.53
2023-01-17T03:32:51.884Z,98149.09
2023-01-17T03:35:20.010Z,98161.13
2023-01-17T03:37:48.164Z,98158.41
2023-01-17T03:40:18.609Z,98164.94
2023-01-17T03:42:47.064Z,98172.13
2023-01-17T03:45:16.566Z,98180.28
2023-01-17T03:47:44.948Z,98172.47
2023-01-17T03:50:15.867Z,98171.13
2023-01-17T03:52:44.197Z,98175.03
2023-01-17T03:55:12.234Z,98184.09
2023-01-17T03:57:40.371Z,98189.94
2023-01-17T04:00:11.114Z,98195.50
2023-01-17T04:02:39.362Z,98191.91
2023-01-17T04:05:08.090Z,98202.69
2023-01-17T04:07:38.021Z,98200.72
2023-01-17T04:10:08.626Z,98210.50
2023-01-17T04:12:37.406Z,98215.44
2023-01-17T04:15:06.053Z,98209.06
2023-01-17T04:17:34.320Z,98212.84
2023-01-17T04:20:02.363Z,98216.63
2023-01-17T04:22:31.602Z,98220.78
2023-01-17T04:25:00.992Z,98224.72
2023-01-17T04:27:28.931Z,98219.03
2023-01-17T04:29:56.881Z,98226.28
2023-01-17T04:32:24.949Z,98225.84
2023-01-17T04:34:53.100Z,98229.25
2023-01-17T04:37:21.072Z,98241.44
2023-01-17T04:39:49.683Z,98245.78
2023-01-17T04:42:21.237Z,98242.63
2023-01-17T04:44:49.576Z,98250.16
2023-01-17T04:47:17.846Z,98253.06
2023-01-17T04:49:45.923Z,98252.56
2023-01-17T04:52:15.062Z,98247.44
2023-01-17T04:54:42.995Z,98243.81
2023-01-17T04:57:11.246Z,98245.00
2023-01-17T04:59:40.679Z,98254.00
2023-01-17T05:02:08.895Z,98249.91
2023-01-17T05:04:37.153Z,98258.28
2023-01-17T05:07:06.994Z,98259.16
2023-01-17T05:09:35.760Z,98264.75
2023-01-17T05:12:03.858Z,98263.84
2023-01-17T05:14:34.314Z,98277.06
2023-01-17T05:17:04.504Z,98284.25
2023-01-17T05:19:32.629Z,98285.47
2023-01-17T05:22:04.362Z,98285.88
2023-01-17T05:24:32.933Z,98292.28
2023-01-17T05:27:03.126Z,98292.47
2023-01-17T05:29:31.994Z,98302.91
2023-01-17T05:31:59.958Z,98300.50
2023-01-17T05:34:29.591Z,98297.09
2023-01-17T05:36:58.238Z,98301.72
2023-01-17T05:39:27.191Z,98308.97
2023-01-17T05:41:55.238Z,98311.38
2023-01-17T05:44:23.533Z,98312.28
2023-01-17T05:46:51.827Z,98317.44
2023-01-17T05:49:20.371Z,98323.66
2023-01-17T05:51:49.809Z,98316.50
2023-01-17T05:54:18.430Z,98321.31
2023-01-17T05:56:46.749Z,98323.44
2023-01-17T05:59:17.254Z,98328.94
2023-01-17T06:01:47.010Z,98329.31
2023-01-17T06:04:15.214Z,98334.81
2023-01-17T06:06:43.281Z,98328.56
2023-01-17T06:09:12.906Z,98339.91
2023-01-17T06:11:41.055Z,98340.28
2023-01-17T06:14:09.671Z,98344.38
2023-01-17T06:16:37.662Z,98343.34
2023-01-17T06:19:06.852Z,98343.25
2023-01-17T06:21:34.913Z,98350.19
2023-01-17T06:24:04.334Z,98354.00
2023-01-17T06:26:34.531Z,98368.66
2023-01-17T06:29:04.935Z,98368.81
2023-01-17T06:31:33.264Z,98371.88
2023-01-17T06:34:04.660Z,98373.59
2023-01-17T06:36:34.136Z,98378.75
2023-01-17T06:39:02.489Z,98383.38
2023-01-17T06:41:31.005Z,98391.81
2023-01-17T06:44:00.793Z,98389.28
2023-01-17T06:46:31.916Z,98390.47
2023-01-17T06:49:00.191Z,98390.72
2023-01-17T06:51:28.949Z,98393.63
2023-01-17T06:53:57.017Z,98394.16
2023-01-17T06:56:25.079Z,98395.19
2023-01-17T06:58:53.323Z,98395.94
2023-01-17T07:01:22.928Z,98402.00
2023-01-17T07:03:52.447Z,98407.28
2023-01-17T07:06:21.006Z,98402.91
2023-01-17T07:08:49.482Z,98407.44
2023-01-17T07:11:17.629Z,98411.81
2023-01-17T07:13:45.595Z,98413.69
2023-01-17T07:16:13.690Z,98424.47
2023-01-17T07:18:43.831Z,98423.22
2023-01-17T07:21:15.259Z,98433.59
2023-01-17T07:23:43.575Z,98430.41
2023-01-17T07:26:11.797Z,98435.28
2023-01-17T07:28:39.759Z,98450.97
2023-01-17T07:31:08.845Z,98442.59
2023-01-17T07:33:37.109Z,98449.53
2023-01-17T07:36:09.447Z,98449.06
2023-01-17T07:38:37.687Z,98450.16
2023-01-17T07:41:06.170Z,98454.34
2023-01-17T07:43:35.669Z,98446.25
2023-01-17T07:46:06.368Z,98451.81
2023-01-17T07:48:34.786Z,98460.69
2023-01-17T07:51:02.931Z,98452.28
2023-01-17T07:53:33.441Z,98452.78
2023-01-17T07:56:03.769Z,98457.78
2023-01-17T07:58:32.648Z,98463.13
2023-01-17T08:01:06.275Z,98463.53
2023-01-17T08:03:39.883Z,98469.03
2023-01-17T08:06:15.982Z,98462.06
2023-01-17T08:08:46.399Z,98476.63
2023-01-17T08:11:15.519Z,98472.44
2023-01-17T08:13:43.589Z,98464.81
2023-01-17T08:16:12.483Z,98472.94
2023-01-17T08:18:40.914Z,98476.00
2023-01-17T08:21:15.332Z,98473.06
2023-01-17T08:23:45.051Z,98466.31
2023-01-17T08:26:21.532Z,98468.91
2023-01-17T08:28:50.651Z,98475.03
2023-01-17T08:31:19.925Z,98479.44
2023-01-17T08:33:48.032Z,98480.75
2023-01-17T08:36:16.224Z,98481.97
2023-01-17T08:38:46.138Z,98478.44
2023-01-17T08:41:14.200Z,98479.19
2023-01-17T08:43:42.127Z,98487.16
2023-01-17T08:46:11.011Z,98494.31
2023-01-17T08:48:39.390Z,98498.59
2023-01-17T08:51:07.711Z,98507.75
2023-01-17T08:53:36.149Z,98510.22
2023-01-17T08:56:07.777Z,98513.44
2023-01-17T08:58:36.115Z,98513.69
2023-01-17T09:01:08.385Z,98513.47
2023-01-17T09:03:38.385Z,98509.00
2023-01-17T09:06:10.055Z,98512.41
2023-01-17T09:08:38.772Z,98526.38
2023-01-17T09:11:09.382Z,98514.28
2023-01-17T09:13:38.054Z,98518.03
2023-01-17T09:16:07.322Z,98517.97
2023-01-17T09:18:37.028Z,98511.69
2023-01-17T09:21:11.922Z,98509.38
2023-01-17T09:23:40.324Z,98505.00
2023-01-17T09:26:23.947Z,98507.56
2023-01-17T09:28:53.618Z,98511.28
2023-01-17T09:31:24.363Z,98524.91
2023-01-17T09:33:54.530Z,98533.50
2023-01-17T09:36:23.914Z,98541.66
2023-01-17T09:38:57.499Z,98557.19
2023-01-17T09:41:30.012Z,98554.50
2023-01-17T09:44:07.409Z,98561.56
2023-01-17T09:46:40.653Z,98553.13
2023-01-17T09:49:13.075Z,98562.31
2023-01-17T09:51:42.368Z,98574.97
2023-01-17T09:54:21.815Z,98577.31
2023-01-17T09:57:02.348Z,98589.03
2023-01-17T09:59:42.834Z,98575.66
2023-01-17T10:02:34.142Z,98580.22
2023-01-17T10:05:26.328Z,98569.22
2023-01-17T10:08:09.594Z,98560.47
2023-01-17T10:10:43.312Z,98558.88
2023-01-17T10:13:28.674Z,98559.78
2023-01-17T10:16:19.097Z,98569.91
2023-01-17T10:19:13.976Z,98582.56
2023-01-17T10:22:02.209Z,98576.28
2023-01-17T10:25:08.573Z,98578.50
2023-01-17T10:27:42.706Z,98602.41
2023-01-17T10:30:19.669Z,98608.34
2023-01-17T10:32:50.806Z,98608.97
2023-01-17T10:35:25.435Z,98604.31
2023-01-17T10:37:57.033Z,98591.56
2023-01-17T10:40:33.539Z,98608.09
2023-01-17T10:43:07.229Z,98601.13
2023-01-17T10:45:41.875Z,98589.97
2023-01-17T10:48:17.836Z,98590.63
2023-01-17T10:50:58.159Z,98588.72
2023-01-17T10:53:42.507Z,98585.94
2023-01-17T10:56:14.132Z,98587.56
2023-01-17T10:58:42.317Z,98580.31
2023-01-17T11:01:19.345Z,98577.78
2023-01-17T11:03:51.488Z,98582.09
2023-01-17T11:06:21.347Z,98567.72
2023-01-17T11:08:54.833Z,98559.38
2023-01-17T11:11:25.775Z,98572.03
2023-01-17T11:13:55.641Z,98564.84
2023-01-17T11:16:28.652Z,98563.56
2023-01-17T11:19:09.970Z,98554.06
2023-01-17T11:21:40.874Z,98553.97
2023-01-17T11:24:18.773Z,98554.28
2023-01-17T11:26:49.433Z,98546.69
2023-01-17T11:29:31.751Z,98545.22
2023-01-17T11:32:28.101Z,98548.31
2023-01-17T11:35:21.723Z,98543.84
2023-01-17T11:37:53.893Z,98549.88
2023-01-17T11:40:27.761Z,98542.50
2023-01-17T11:43:19.747Z,98545.28
2023-01-17T11:46:01.194Z,98542.00
2023-01-17T11:48:36.391Z,98534.75
2023-01-17T11:51:12.498Z,98535.41
2023-01-17T11:53:41.874Z,98532.47
2023-01-17T11:56:12.936Z,98536.91
2023-01-17T11:58:43.731Z,98534.47
2023-01-17T12:01:32.957Z,98528.88
2023-01-17T12:04:32.069Z,98530.66
2023-01-17T12:07:11.947Z,98524.72
2023-01-17T12:09:46.425Z,98530.66
2023-01-17T12:12:39.717Z,98520.63
2023-01-17T12:15:23.151Z,98529.66
2023-01-17T12:18:13.565Z,98529.06
2023-01-17T12:20:51.807Z,98519.78
2023-01-17T12:23:48.626Z,98520.56
2023-01-17T12:26:30.525Z,98519.53
2023-01-17T12:29:30.572Z,98521.88
2023-01-17T12:32:11.428Z,98518.16
2023-01-17T12:34:47.185Z,98518.31
2023-01-17T12:37:22.032Z,98526.09
2023-01-17T12:39:59.520Z,98517.94
2023-01-17T12:42:34.141Z,98527.75
2023-01-17T12:45:09.385Z,98515.91
2023-01-17T12:47:43.346Z,98519.41
2023-01-17T12:50:23.632Z,98521.44
2023-01-17T12:53:43.610Z,98517.34
2023-01-17T12:56:19.173Z,98519.53
2023-01-17T12:58:52.456Z,98522.88
2023-01-17T13:01:29.528Z,98520.63
2023-01-17T13:04:08.249Z,98531.00
2023-01-17T13:06:51.007Z,98521.13
2023-01-17T13:09:23.524Z,98526.50
2023-01-17T13:11:58.191Z,98535.41
2023-01-17T13:14:27.898Z,98538.22
2023-01-17T13:16:59.196Z,98535.44
2023-01-17T13:19:40.914Z,98536.22
2023-01-17T13:22:17.358Z,98535.09
2023-01-17T13:24:55.423Z,98544.44
2023-01-17T13:28:06.360Z,98534.63
2023-01-17T13:30:57.550Z,98548.84
2023-01-17T13:33:39.517Z,98537.59
2023-01-17T13:36:25.586Z,98542.84
2023-01-17T13:39:13.932Z,98538.81
2023-01-17T13:41:50.605Z,98542.38
2023-01-17T13:44:22.938Z,98537.53
2023-01-17T13:47:00.781Z,98540.53
2023-01-17T13:49:35.705Z,98541.00
2023-01-17T13:52:10.652Z,98556.25
2023-01-17T13:54:50.931Z,98549.88
2023-01-17T13:57:42.289Z,98542.13
2023-01-17T14:00:59.366Z,98551.03
2023-01-17T14:04:08.201Z,98558.97
2023-01-17T14:06:41.909Z,98560.72
2023-01-17T14:09:17.776Z,98565.56
2023-01-17T14:12:05.701Z,98566.38
2023-01-17T14:14:44.307Z,98566.69
2023-01-17T14:17:49.326Z,98568.66
2023-01-17T14:20:53.584Z,98577.41
2023-01-17T14:23:26.708Z,98579.22
2023-01-17T14:25:59.439Z,98577.28
2023-01-17T14:28:32.768Z,98592.47
2023-01-17T14:31:03.781Z,98589.28
2023-01-17T14:33:37.329Z,98590.91
2023-01-17T14:36:08.190Z,98600.53
2023-01-17T14:38:43.363Z,98603.03
2023-01-17T14:41:16.300Z,98609.94
2023-01-17T14:43:45.377Z,98614.63
2023-01-17T14:46:19.846Z,98611.72
2023-01-17T14:48:47.943Z,98603.44
2023-01-17T14:51:22.059Z,98608.63
2023-01-17T14:53:55.456Z,98608.16
2023-01-17T14:56:24.197Z,98611.81
2023-01-17T14:59:07.566Z,98608.97
2023-01-17T15:01:36.899Z,98610.19
2023-01-17T15:04:05.639Z,98608.94
2023-01-17T15:06:39.420Z,98615.75
2023-01-17T15:09:12.088Z,98618.66
2023-01-17T15:11:40.505Z,98619.69
2023-01-17T15:14:09.160Z,98627.31
2023-01-17T15:16:41.072Z,98626.16
2023-01-17T15:19:13.449Z,98632.09
2023-01-17T15:21:44.990Z,98636.94
2023-01-17T15:24:20.871Z,98633.03
2023-01-17T15:26:50.063Z,98626.03
2023-01-17T15:29:24.393Z,98626.97
2023-01-17T15:31:55.699Z,98622.09
2023-01-17T15:34:29.798Z,98624.34
2023-01-17T15:37:03.124Z,98627.53
2023-01-17T15:39:34.030Z,98636.88
2023-01-17T15:42:05.164Z,98633.09
2023-01-17T15:44:47.543Z,98637.88
2023-01-17T15:47:27.395Z,98628.53
2023-01-17T15:49:56.070Z,98633.63
2023-01-17T15:52:25.747Z,98625.78
2023-01-17T15:54:54.790Z,98629.59
2023-01-17T15:57:28.577Z,98621.00
2023-01-17T15:59:59.967Z,98628.81
2023-01-17T16:02:38.788Z,98629.28
2023-01-17T16:05:44.433Z,98635.97
2023-01-17T16:08:33.895Z,98627.06
2023-01-17T16:11:03.887Z,98636.00
2023-01-17T16:13:33.635Z,98639.53
2023-01-17T16:16:17.029Z,98637.53
2023-01-17T16:18:46.622Z,98638.53
2023-01-17T16:21:20.989Z,98646.38
2023-01-17T16:23:51.712Z,98648.34
2023-01-17T16:26:20.680Z,98648.44
2023-01-17T16:28:49.917Z,98650.94
2023-01-17T16:31:17.995Z,98650.56
2023-01-17T16:33:46.908Z,98649.91
2023-01-17T16:36:16.538Z,98649.91
2023-01-17T16:38:45.731Z,98664.06
2023-01-17T16:41:15.310Z,98653.88
2023-01-17T16:43:43.445Z,98654.81
2023-01-17T16:46:13.914Z,98653.00
2023-01-17T16:48:42.034Z,98660.09
2023-01-17T16:51:10.352Z,98665.94
2023-01-17T16:53:38.461Z,98665.09
2023-01-17T16:56:10.201Z,98662.03
2023-01-17T16:58:39.734Z,98675.75
2023-01-17T17:01:11.337Z,98665.78
2023-01-17T17:03:39.515Z,98658.53
2023-01-17T17:06:08.788Z,98664.38
2023-01-17T17:08:38.229Z,98673.00
2023-01-17T17:11:15.235Z,98674.31
2023-01-17T17:13:46.412Z,98678.53
2023-01-17T17:16:17.786Z,98673.59
2023-01-17T17:18:48.569Z,98677.19
2023-01-17T17:21:17.017Z,98686.38
2023-01-17T17:23:46.408Z,98681.69
2023-01-17T17:26:16.186Z,98689.50
2023-01-17T17:28:45.747Z,98692.97
2023-01-17T17:31:13.769Z,98685.91
2023-01-17T17:33:42.224Z,98687.72
2023-01-17T17:36:11.113Z,98693.38
2023-01-17T17:38:51.114Z,98694.22
2023-01-17T17:41:21.529Z,98697.81
2023-01-17T17:43:52.355Z,98702.00
2023-01-17T17:46:21.254Z,98690.78
2023-01-17T17:48:50.005Z,98701.13
2023-01-17T17:51:23.486Z,98706.25
2023-01-17T17:53:52.756Z,98707.50
2023-01-17T17:56:21.385Z,98709.16
2023-01-17T17:58:51.351Z,98708.44
2023-01-17T18:01:19.594Z,98713.31
2023-01-17T18:03:47.746Z,98712.97
2023-01-17T18:06:17.513Z,98712.25
2023-01-17T18:08:45.933Z,98713.09
2023-01-17T18:11:17.793Z,98717.00
2023-01-17T18:13:50.393Z,98717.72
2023-01-17T18:16:23.338Z,98728.84
2023-01-17T18:18:53.163Z,98737.25
2023-01-17T18:21:23.839Z,98726.06
2023-01-17T18:23:54.772Z,98738.56
2023-01-17T18:26:25.000Z,98730.47
2023-01-17T18:28:54.361Z,98734.03
2023-01-17T18:31:25.186Z,98727.78
2023-01-17T18:33:54.106Z,98739.22
2023-01-17T18:36:24.270Z,98740.94
2023-01-17T18:38:53.566Z,98743.50
2023-01-17T18:41:24.270Z,98741.28
2023-01-17T18:43:52.787Z,98742.63
2023-01-17T18:46:23.247Z,98746.13
2023-01-17T18:48:51.846Z,98754.94
2023-01-17T18:51:21.847Z,98761.13
2023-01-17T18:53:50.310Z,98767.72
2023-01-17T18:56:20.870Z,98766.41
2023-01-17T18:58:50.019Z,98768.41
2023-01-17T19:01:19.868Z,98766.56
2023-01-17T19:03:51.027Z,98767.22
2023-01-17T19:06:20.890Z,98770.44
2023-01-17T19:08:51.660Z,98776.63
2023-01-17T19:11:20.644Z,98765.53
2023-01-17T19:13:50.248Z,98766.91
2023-01-17T19:16:21.163Z,98780.97
2023-01-17T19:18:50.655Z,98783.84
2023-01-17T19:21:21.759Z,98777.31
2023-01-17T19:23:50.648Z,98789.44
2023-01-17T19:26:20.405Z,98787.56
2023-01-17T19:28:49.709Z,98787.91
2023-01-17T19:31:20.435Z,98790.09
2023-01-17T19:33:51.297Z,98790.06
2023-01-17T19:36:21.863Z,98799.19
2023-01-17T19:39:03.492Z,98787.56
2023-01-17T19:41:32.693Z,98782.84
2023-01-17T19:44:03.342Z,98790.75
2023-01-17T19:46:32.592Z,98788.75
2023-01-17T19:49:03.389Z,98795.97
2023-01-17T19:51:32.300Z,98794.13
2023-01-17T19:54:01.786Z,98804.38
2023-01-17T19:56:30.948Z,98798.78
2023-01-17T19:59:01.630Z,98802.84
2023-01-17T20:01:32.732Z,98803.50
2023-01-17T20:04:05.344Z,98797.97
2023-01-17T20:06:36.223Z,98807.41
2023-01-17T20:09:06.517Z,98809.41
2023-01-17T20:11:35.422Z,98810.41
2023-01-17T20:14:06.473Z,98814.31
2023-01-17T20:16:36.943Z,98813.78
2023-01-17T20:19:06.836Z,98822.22
2023-01-17T20:21:35.261Z,98819.34
2023-01-17T20:24:04.770Z,98824.06
2023-01-17T20:26:37.465Z,98830.59
2023-01-17T20:29:09.977Z,98841.38
2023-01-17T20:31:39.059Z,98844.88
2023-01-17T20:34:11.688Z,98839.34
2023-01-17T20:36:41.718Z,98842.38
2023-01-17T20:39:11.958Z,98843.41
2023-01-17T20:41:41.852Z,98846.75
2023-01-17T20:44:13.815Z,98850.44
2023-01-17T20:46:42.483Z,98848.94
2023-01-17T20:49:14.891Z,98848.94
2023-01-17T20:51:44.235Z,98859.53
2023-01-17T20:54:14.417Z,98864.56
2023-01-17T20:56:43.040Z,98875.19
2023-01-17T20:59:15.178Z,98878.22
2023-01-17T21:01:44.958Z,98877.34
2023-01-17T21:04:14.903Z,98886.28
2023-01-17T21:06:44.375Z,98888.81
2023-01-17T21:09:14.495Z,98887.94
2023-01-17T21:11:42.635Z,98886.25
2023-01-17T21:14:11.027Z,98887.91
2023-01-17T21:16:39.558Z,98890.28
2023-01-17T21:19:12.284Z,98889.94
2023-01-17T21:21:41.676Z,98894.81
2023-01-17T21:24:16.503Z,98893.31
2023-01-17T21:26:46.045Z,98897.69
2023-01-17T21:29:15.974Z,98895.19
2023-01-17T21:31:45.132Z,98901.75
2023-01-17T21:34:14.664Z,98893.31
2023-01-17T21:36:44.435Z,98899.22
2023-01-17T21:39:15.725Z,98900.03
2023-01-17T21:41:46.662Z,98898.16
2023-01-17T21:44:16.748Z,98904.59
2023-01-17T21:46:44.620Z,98901.34
2023-01-17T21:49:13.653Z,98902.56
2023-01-17T21:51:59.908Z,98903.06
2023-01-17T21:54:48.647Z,98900.06
2023-01-17T21:57:35.433Z,98900.72
2023-01-17T22:00:06.554Z,98905.41
2023-01-17T22:02:40.152Z,98905.59
2023-01-17T22:05:11.592Z,98903.25
2023-01-17T22:07:40.406Z,98908.09
2023-01-17T22:10:13.820Z,98912.13
2023-01-17T22:12:41.977Z,98902.09
2023-01-17T22:15:11.563Z,98898.53
2023-01-17T22:17:41.142Z,98904.78
2023-01-17T22:20:11.567Z,98899.53
2023-01-17T22:22:39.882Z,98899.69
2023-01-17T22:25:09.158Z,98909.81
2023-01-17T22:27:38.644Z,98906.63
2023-01-17T22:30:13.394Z,98914.16
2023-01-17T22:32:42.407Z,98914.81
2023-01-17T22:35:11.937Z,98917.38
2023-01-17T22:37:41.392Z,98910.97
2023-01-17T22:40:12.678Z,98907.94
2023-01-17T22:42:43.395Z,98912.13
2023-01-17T22:45:13.573Z,98908.78
2023-01-17T22:47:41.863Z,98914.28
2023-01-17T22:50:12.012Z,98916.41
2023-01-17T22:52:39.991Z,98923.63
2023-01-17T22:55:08.660Z,98922.25
2023-01-17T22:57:36.588Z,98913.09
2023-01-17T23:00:14.682Z,98917.28
2023-01-17T23:02:43.587Z,98920.81
2023-01-17T23:05:15.564Z,98912.94
2023-01-17T23:07:44.973Z,98916.22
2023-01-17T23:10:35.381Z,98915.31
2023-01-17T23:13:03.539Z,98919.03
2023-01-17T23:15:50.908Z,98910.28
2023-01-17T23:18:36.479Z,98916.38
2023-01-17T23:21:05.089Z,98912.41
2023-01-17T23:23:33.544Z,98904.38
2023-01-17T23:26:02.387Z,98913.50
2023-01-17T23:28:29.626Z,98916.03
2023-01-17T23:31:06.279Z,98922.03
2023-01-17T23:33:34.711Z,98923.00
2023-01-17T23:36:03.239Z,98924.22
2023-01-17T23:38:34.293Z,98924.50
2023-01-17T23:41:21.263Z,98927.19
2023-01-17T23:43:53.494Z,98925.69
2023-01-17T23:46:24.032Z,98931.84
2023-01-17T23:48:52.254Z,98944.75
2023-01-17T23:51:20.230Z,98933.50
2023-01-17T23:53:48.362Z,98940.53
2023-01-17T23:56:18.554Z,98936.47
2023-01-17T23:58:46.746Z,98932.88
